Time;durP1;ratioP1;P1;durP2;ratioP2;P2;SDS_P1;SDS_P2;PMS_P1;PMS_P2;Temp;Humidity;BMP_temperature;BMP_pressure;BME280_temperature;BME280_humidity;BME280_pressure;Samples;Min_cycle;Max_cycle;Signal;HPM_P1;HPM_P2
2022/04/09 00:01:13;;;;;;;19.77;10.50;;;;;;;6.92;85.35;96861.77;4075213;86;21106;-87
2022/04/09 00:07:22;;;;;;;15.55;9.63;;;;;;;6.88;86.00;96859.68;4052067;86;21082;-87
2022/04/09 00:13:23;;;;;;;16.82;10.23;;;;;;;6.90;86.47;96869.58;4161035;84;21062;-87
2022/04/09 00:19:32;;;;;;;15.83;10.30;;;;;;;6.91;86.49;96860.23;4161194;84;21133;-88
2022/04/09 00:25:44;;;;;;;17.92;12.07;;;;;;;6.97;86.58;96861.95;4157566;84;21043;-88
2022/04/09 00:31:43;;;;;;;17.70;11.53;;;;;;;6.95;86.52;96832.43;4074339;84;21050;-87
2022/04/09 00:37:47;;;;;;;17.15;11.45;;;;;;;7.01;86.73;96840.34;4154860;84;21078;-86
2022/04/09 00:43:54;;;;;;;14.68;10.75;;;;;;;7.06;86.92;96850.79;4079389;86;21046;-86
2022/04/09 00:49:53;;;;;;;18.70;11.85;;;;;;;7.00;86.90;96869.30;4160122;84;21074;-87
2022/04/09 00:56:15;;;;;;;18.62;12.03;;;;;;;7.03;87.16;96876.05;4156645;84;21717;-87
2022/04/09 01:02:26;;;;;;;19.57;12.90;;;;;;;7.00;87.63;96848.91;4052103;86;21106;-87
2022/04/09 01:08:34;;;;;;;26.10;16.02;;;;;;;6.99;87.56;96819.55;4016887;87;21095;-88
2022/04/09 01:14:40;;;;;;;28.27;16.60;;;;;;;6.88;87.68;96826.26;4054322;86;21086;-86
2022/04/09 01:20:52;;;;;;;28.87;17.80;;;;;;;6.90;87.99;96811.10;4013138;87;21133;-86
2022/04/09 01:26:53;;;;;;;28.23;17.23;;;;;;;7.00;88.43;96800.69;3988111;88;21083;-86
2022/04/09 01:32:59;;;;;;;28.50;16.27;;;;;;;7.08;88.17;96795.37;3952281;88;21075;-87
2022/04/09 01:39:02;;;;;;;30.80;18.20;;;;;;;7.15;88.23;96825.23;4020034;87;21515;-87
2022/04/09 01:45:07;;;;;;;31.52;18.75;;;;;;;7.03;88.51;96817.56;4051406;86;21003;-86
2022/04/09 01:51:15;;;;;;;37.42;22.60;;;;;;;7.05;88.56;96821.23;4042077;86;21406;-87
2022/04/09 01:57:20;;;;;;;37.15;20.88;;;;;;;7.11;88.37;96802.72;4066175;85;21106;-88
2022/04/09 02:03:24;;;;;;;32.67;19.27;;;;;;;7.02;88.67;96816.03;4137354;84;21000;-86
2022/04/09 02:09:33;;;;;;;36.10;20.35;;;;;;;7.08;88.85;96844.34;4132864;84;21055;-87
2022/04/09 02:15:38;;;;;;;38.00;19.55;;;;;;;7.05;88.95;96830.76;4140915;84;21031;-87
2022/04/09 02:21:43;;;;;;;39.13;21.45;;;;;;;7.08;89.35;96817.13;4138391;84;21594;-86
2022/04/09 02:27:46;;;;;;;38.05;21.05;;;;;;;7.12;89.26;96817.88;4138832;84;21060;-87
2022/04/09 02:33:53;;;;;;;35.10;19.98;;;;;;;7.09;89.42;96820.63;4218915;83;21066;-87
2022/04/09 02:39:58;;;;;;;43.33;22.95;;;;;;;7.05;89.23;96795.39;4177382;83;21089;-87
2022/04/09 02:46:07;;;;;;;45.85;24.67;;;;;;;6.90;89.48;96783.13;4222353;83;21030;-87
2022/04/09 02:52:13;;;;;;;;;;;;;;;6.92;89.92;96793.77;4223397;83;21050;-87
2022/04/09 02:58:16;;;;;;;41.65;22.17;;;;;;;6.89;89.44;96746.98;4128797;84;20687;-86
2022/04/09 03:04:20;;;;;;;34.58;19.23;;;;;;;6.81;89.89;96737.38;4213567;83;242530;-87
2022/04/09 03:10:21;;;;;;;33.05;18.60;;;;;;;6.74;90.04;96742.09;4159685;83;189052;-87
2022/04/09 03:16:23;;;;;;;35.30;19.10;;;;;;;6.71;90.07;96730.09;4162947;83;21066;-88
2022/04/09 03:22:34;;;;;;;34.23;18.35;;;;;;;6.68;90.09;96705.07;4135542;83;21051;-88
2022/04/09 03:28:42;;;;;;;34.18;17.12;;;;;;;6.66;90.43;96709.35;4151311;83;21040;-86
2022/04/09 03:34:44;;;;;;;34.63;17.73;;;;;;;6.66;90.48;96684.88;4152419;84;20999;-86
2022/04/09 03:40:46;;;;;;;32.83;17.40;;;;;;;6.57;90.60;96682.66;4165298;83;21011;-85
2022/04/09 03:46:48;;;;;;;33.25;18.02;;;;;;;6.56;90.76;96666.17;4178052;83;21121;-87
2022/04/09 03:52:51;;;;;;;30.37;16.60;;;;;;;6.53;90.42;96649.89;4173330;83;21039;-87
2022/04/09 03:58:53;;;;;;;34.50;20.25;;;;;;;6.39;90.67;96649.44;4168273;83;21197;-87
2022/04/09 04:05:01;;;;;;;33.45;20.32;;;;;;;6.42;91.24;96638.36;4182645;83;21032;-87
2022/04/09 04:11:02;;;;;;;41.68;21.85;;;;;;;6.45;91.02;96636.97;4176880;83;21114;-86
2022/04/09 04:17:05;;;;;;;41.60;20.50;;;;;;;6.39;91.26;96635.84;4169486;83;21093;-88
2022/04/09 04:23:08;;;;;;;39.08;20.50;;;;;;;6.40;91.27;96626.53;4183030;83;21001;-86
2022/04/09 04:29:10;;;;;;;40.88;21.33;;;;;;;6.36;91.94;96640.73;4171994;83;22068;-86
2022/04/09 04:35:12;;;;;;;45.43;23.47;;;;;;;6.44;92.01;96640.84;4172854;83;21741;-86
2022/04/09 04:41:14;;;;;;;42.70;21.07;;;;;;;6.46;91.92;96633.65;4174321;83;21075;-86
2022/04/09 04:47:17;;;;;;;39.42;20.97;;;;;;;6.49;92.33;96627.40;4166514;83;22034;-87
2022/04/09 04:53:18;;;;;;;35.80;19.92;;;;;;;6.57;92.40;96616.64;4169696;83;21000;-87
2022/04/09 04:59:22;;;;;;;37.03;19.85;;;;;;;6.57;92.56;96616.06;4165151;83;21034;-86
2022/04/09 05:05:23;;;;;;;36.45;18.82;;;;;;;6.65;92.90;96620.83;4128710;84;21106;-86
2022/04/09 05:11:36;;;;;;;37.35;19.60;;;;;;;6.65;92.77;96603.94;4127952;84;21103;-86
2022/04/09 05:17:39;;;;;;;40.12;20.02;;;;;;;6.62;92.89;96609.41;4147906;84;21957;-86
2022/04/09 05:23:41;;;;;;;44.98;19.80;;;;;;;6.58;94.49;96665.77;4155251;84;21010;-86
2022/04/09 05:29:42;;;;;;;41.85;20.37;;;;;;;6.57;94.87;96690.03;4130829;84;21074;-89
2022/04/09 05:35:45;;;;;;;43.78;19.80;;;;;;;6.56;96.63;96677.05;4141498;84;21778;-88
2022/04/09 05:41:47;;;;;;;40.40;20.37;;;;;;;6.55;96.28;96689.08;4146133;84;21631;-89
2022/04/09 05:47:49;;;;;;;28.17;16.55;;;;;;;6.55;95.91;96725.77;4126037;84;21107;-88
2022/04/09 05:53:52;;;;;;;24.40;12.88;;;;;;;6.57;95.66;96713.14;4137407;84;21047;-86
2022/04/09 05:59:55;;;;;;;19.37;10.82;;;;;;;6.62;96.36;96728.44;4127903;84;21080;-87
2022/04/09 06:05:58;;;;;;;23.85;11.83;;;;;;;6.64;95.66;96736.19;4114155;85;21086;-88
2022/04/09 06:12:02;;;;;;;18.87;10.50;;;;;;;6.65;96.17;96775.20;4116583;85;21729;-88
2022/04/09 06:18:06;;;;;;;10.40;7.58;;;;;;;6.65;96.57;96836.38;4110951;84;21531;-87
2022/04/09 06:24:08;;;;;;;9.78;5.20;;;;;;;6.60;96.67;96895.82;4108339;85;21118;-87
2022/04/09 06:30:12;;;;;;;8.25;5.22;;;;;;;6.57;96.91;96914.29;4115196;84;21531;-88
2022/04/09 06:36:16;;;;;;;11.50;7.00;;;;;;;6.60;96.86;96950.97;4123225;85;21612;-87
2022/04/09 06:42:17;;;;;;;4.17;1.20;;;;;;;6.59;96.48;96986.14;4145786;84;21040;-87
2022/04/09 06:48:28;;;;;;;1.52;1.10;;;;;;;6.37;96.65;97004.47;4120518;84;20977;-87
2022/04/09 06:54:37;;;;;;;2.25;1.15;;;;;;;6.06;96.35;97061.65;4100105;85;21074;-88
2022/04/09 07:00:44;;;;;;;3.05;2.00;;;;;;;5.85;95.68;97088.25;4122226;84;21083;-89
2022/04/09 07:06:46;;;;;;;3.47;1.82;;;;;;;5.82;95.31;97136.55;4128856;84;21610;-87
2022/04/09 07:12:49;;;;;;;3.90;2.12;;;;;;;5.86;95.30;97182.12;4143031;84;21128;-86
2022/04/09 07:18:55;;;;;;;2.25;1.40;;;;;;;5.75;94.72;97205.73;4151483;84;21048;-86
2022/04/09 07:24:55;;;;;;;2.87;1.20;;;;;;;5.62;94.39;97230.93;4146481;84;21147;-86
2022/04/09 07:30:57;;;;;;;3.55;1.30;;;;;;;5.57;94.81;97280.94;4140286;84;21062;-87
2022/04/09 07:36:58;;;;;;;3.60;1.85;;;;;;;5.46;94.01;97308.63;4112187;84;22003;-88
2022/04/09 07:43:01;;;;;;;4.45;2.40;;;;;;;5.39;94.41;97311.29;4115760;84;22127;-86
2022/04/09 07:49:03;;;;;;;5.55;2.42;;;;;;;5.41;94.15;97328.55;4119121;84;21548;-86
2022/04/09 07:55:07;;;;;;;6.53;2.55;;;;;;;5.36;93.66;97395.38;4144901;84;21041;-88
2022/04/09 08:01:09;;;;;;;7.00;2.90;;;;;;;5.23;93.57;97401.70;4140962;83;21083;-86
2022/04/09 08:07:11;;;;;;;5.62;2.75;;;;;;;5.16;93.70;97432.86;4180839;83;21617;-87
2022/04/09 08:13:13;;;;;;;7.85;3.35;;;;;;;5.03;93.48;97447.11;4173284;83;21438;-86
2022/04/09 08:19:15;;;;;;;8.63;4.30;;;;;;;4.99;93.83;97478.25;4187500;83;20990;-87
2022/04/09 08:25:17;;;;;;;5.45;3.77;;;;;;;4.99;93.95;97509.44;4187369;83;22283;-87
2022/04/09 08:31:19;;;;;;;6.28;4.62;;;;;;;4.98;93.77;97526.84;4163315;83;21166;-86
2022/04/09 08:37:22;;;;;;;5.67;3.67;;;;;;;4.87;93.54;97553.08;4163157;83;21534;-88
2022/04/09 08:43:24;;;;;;;4.10;3.00;;;;;;;4.78;93.36;97571.02;4179607;83;21113;-87
2022/04/09 08:49:27;;;;;;;4.97;3.08;;;;;;;4.71;93.38;97581.77;4166075;83;21599;-87
2022/04/09 08:55:28;;;;;;;6.42;4.60;;;;;;;4.72;93.55;97590.69;4165158;83;22293;-87
2022/04/09 09:01:32;;;;;;;9.10;4.20;;;;;;;4.76;93.83;97633.55;4130412;83;21156;-86
2022/04/09 09:07:39;;;;;;;11.05;5.85;;;;;;;4.80;93.63;97635.14;4113138;85;21174;-86
2022/04/09 09:13:53;;;;;;;8.23;5.30;;;;;;;4.88;93.72;97634.64;4111693;85;21582;-87
2022/04/09 09:19:54;;;;;;;8.95;5.60;;;;;;;5.10;93.83;97656.00;4139514;85;21028;-87
2022/04/09 09:25:57;;;;;;;8.95;6.10;;;;;;;5.18;93.84;97690.20;4110654;84;21048;-86
2022/04/09 09:32:02;;;;;;;8.60;4.45;;;;;;;5.21;93.51;97729.58;4107230;85;21582;-86
2022/04/09 09:38:27;;;;;;;8.38;4.85;;;;;;;5.17;92.76;97741.55;4101469;85;21005;-86
2022/04/09 09:44:34;;;;;;;7.60;4.87;;;;;;;5.16;93.00;97753.52;4128118;84;21234;-85
2022/04/09 09:50:42;;;;;;;11.10;4.97;;;;;;;5.19;92.75;97755.50;4120875;85;21086;-86
2022/04/09 09:56:44;;;;;;;7.33;5.10;;;;;;;5.30;93.16;97767.27;4141282;84;21086;-85
2022/04/09 10:02:46;;;;;;;10.98;5.70;;;;;;;5.41;92.86;97770.32;4152967;83;21063;-85
2022/04/09 10:08:47;;;;;;;5.78;3.92;;;;;;;5.42;92.10;97769.16;4184971;83;21121;-86
2022/04/09 10:14:59;;;;;;;9.33;5.58;;;;;;;5.53;92.15;97795.09;4191859;83;21089;-87
2022/04/09 10:21:02;;;;;;;10.78;6.22;;;;;;;5.48;91.75;97802.95;4170946;83;21154;-87
2022/04/09 10:27:06;;;;;;;17.45;8.83;;;;;;;5.68;91.86;97804.38;4162628;83;21034;-86
2022/04/09 10:33:22;;;;;;;16.17;9.23;;;;;;;5.60;91.85;97814.16;4172744;83;21094;-86
2022/04/09 10:39:44;;;;;;;11.07;8.87;;;;;;;5.66;92.02;97829.75;4185977;83;21085;-85
2022/04/09 10:46:09;;;;;;;11.80;8.10;;;;;;;5.94;91.75;97836.89;4156646;83;21327;-85
2022/04/09 10:52:17;;;;;;;15.98;9.70;;;;;;;6.07;91.25;97851.78;4176251;83;21050;-85
2022/04/09 10:58:18;;;;;;;11.22;8.70;;;;;;;5.94;90.96;97851.83;4178392;83;21058;-85
2022/04/09 11:04:36;;;;;;;16.35;9.50;;;;;;;5.91;90.99;97858.58;4189527;83;21046;-85
2022/04/09 11:10:55;;;;;;;13.20;9.50;;;;;;;6.02;91.18;97838.53;4187152;83;20996;-84
2022/04/09 11:16:55;;;;;;;13.40;9.88;;;;;;;6.21;90.95;97838.34;4189772;83;21855;-85
2022/04/09 11:23:21;;;;;;;16.67;11.65;;;;;;;6.23;90.23;97867.26;4184594;83;21067;-86
2022/04/09 11:29:45;;;;;;;16.82;11.22;;;;;;;6.12;89.96;97881.91;4185196;83;21246;-85
2022/04/09 11:35:51;;;;;;;16.35;9.70;;;;;;;6.28;89.89;97888.67;4184954;83;21070;-85
2022/04/09 11:42:05;;;;;;;15.32;10.85;;;;;;;6.23;89.93;97909.98;4178000;83;21054;-86
2022/04/09 11:48:16;;;;;;;19.70;12.10;;;;;;;6.14;90.02;97928.48;4151013;83;21090;-84
2022/04/09 11:54:18;;;;;;;23.35;14.23;;;;;;;6.12;89.75;97937.02;4173155;83;21007;-87
2022/04/09 12:00:27;;;;;;;21.42;14.95;;;;;;;5.98;89.23;97938.80;4175382;83;21587;-85
2022/04/09 12:06:29;;;;;;;21.90;14.13;;;;;;;5.87;88.40;97950.11;4163535;83;21109;-84
2022/04/09 12:12:41;;;;;;;26.35;15.80;;;;;;;5.67;88.85;97962.99;4161812;83;21015;-86
2022/04/09 12:18:44;;;;;;;20.10;14.10;;;;;;;5.76;89.29;97968.16;4062194;86;21096;-84
2022/04/09 12:24:52;;;;;;;24.18;17.15;;;;;;;5.94;89.02;97969.20;4016993;86;21031;-84
2022/04/09 12:30:56;;;;;;;27.62;15.85;;;;;;;6.01;89.30;97985.60;4137153;84;21026;-86
2022/04/09 12:37:06;;;;;;;32.48;18.00;;;;;;;6.11;88.56;97986.29;4130028;84;21052;-85
2022/04/09 12:43:35;;;;;;;26.33;17.60;;;;;;;6.32;88.98;97985.99;4131025;84;21034;-86
2022/04/09 12:49:42;;;;;;;31.33;17.25;;;;;;;6.57;88.53;97976.74;4135389;84;21037;-85
2022/04/09 12:55:50;;;;;;;31.23;17.40;;;;;;;6.63;88.03;97983.41;4128856;84;21117;-85
2022/04/09 13:01:52;;;;;;;29.12;19.75;;;;;;;6.57;87.45;97984.11;4133670;84;21118;-86
2022/04/09 13:07:53;;;;;;;31.15;19.85;;;;;;;6.52;87.64;97972.20;4060021;86;21062;-84
2022/04/09 13:13:55;;;;;;;30.88;18.35;;;;;;;6.57;87.02;97963.72;4038570;86;21018;-85
2022/04/09 13:19:56;;;;;;;27.87;18.60;;;;;;;6.65;87.31;97984.39;4045569;85;21030;-85
2022/04/09 13:25:57;;;;;;;30.08;18.98;;;;;;;6.68;87.13;98013.56;4129277;84;21162;-85
2022/04/09 13:31:58;;;;;;;23.47;15.68;;;;;;;6.61;86.73;97999.30;4135103;84;21179;-86
2022/04/09 13:38:00;;;;;;;29.10;18.62;;;;;;;6.59;85.18;97998.13;4137551;84;21939;-86
2022/04/09 13:44:01;;;;;;;24.55;16.65;;;;;;;6.59;85.91;97999.48;4099271;84;21073;-86
2022/04/09 13:50:04;;;;;;;23.00;13.53;;;;;;;6.53;85.67;97989.50;4115523;84;21617;-89
2022/04/09 13:56:05;;;;;;;15.05;10.85;;;;;;;6.02;84.85;97998.02;4117216;84;21584;-86
2022/04/09 14:02:07;;;;;;;25.43;14.63;;;;;;;5.79;85.98;97991.87;4066207;86;21069;-85
2022/04/09 14:08:08;;;;;;;29.18;14.78;;;;;;;5.94;86.68;98004.51;4053990;86;21737;-86
2022/04/09 14:14:09;;;;;;;28.57;15.95;;;;;;;6.15;87.33;98002.08;4066599;86;22079;-86
2022/04/09 14:20:12;;;;;;;18.40;13.32;;;;;;;6.42;86.85;98000.86;4067590;86;21041;-86
2022/04/09 14:26:20;;;;;;;21.05;10.13;;;;;;;6.52;87.04;98004.83;4074384;86;21113;-86
2022/04/09 14:32:21;;;;;;;17.40;9.78;;;;;;;6.59;86.11;98009.00;4085929;86;21014;-86
2022/04/09 14:38:22;;;;;;;24.60;12.30;;;;;;;6.57;85.54;98011.30;4085709;86;22282;-86
2022/04/09 14:44:23;;;;;;;20.02;14.23;;;;;;;6.68;85.75;98009.48;4072798;86;21436;-85
2022/04/09 14:50:25;;;;;;;23.40;15.60;;;;;;;6.71;85.72;98010.09;4075971;86;21525;-86
2022/04/09 14:56:28;;;;;;;25.32;14.53;;;;;;;6.74;85.70;98007.98;4048848;86;21101;-86
2022/04/09 15:02:29;;;;;;;21.70;13.18;;;;;;;6.79;85.02;98015.81;4078370;86;21104;-85
2022/04/09 15:08:31;;;;;;;22.65;13.13;;;;;;;6.87;84.85;98025.61;4054943;86;21077;-85
2022/04/09 15:14:32;;;;;;;24.23;13.05;;;;;;;6.88;85.22;98042.13;4065164;86;21010;-85
2022/04/09 15:20:34;;;;;;;21.70;11.20;;;;;;;6.84;84.13;98035.88;4064990;86;22058;-85
2022/04/09 15:26:35;;;;;;;19.80;11.95;;;;;;;6.85;84.47;98021.12;4058268;86;21084;-86
2022/04/09 15:32:38;;;;;;;30.37;16.45;;;;;;;6.95;83.67;98012.29;4052476;86;21073;-86
2022/04/09 15:38:39;;;;;;;27.40;15.23;;;;;;;7.10;83.05;98020.78;4054743;86;21676;-86
2022/04/09 15:44:41;;;;;;;16.40;9.33;;;;;;;7.21;83.25;98037.98;4058283;86;21026;-85
2022/04/09 15:50:42;;;;;;;22.90;13.68;;;;;;;7.23;81.78;98038.41;4063172;86;21137;-86
2022/04/09 15:56:44;;;;;;;16.45;10.05;;;;;;;7.23;81.75;98035.11;4053402;86;21025;-85
2022/04/09 16:02:45;;;;;;;12.40;8.58;;;;;;;7.19;81.60;98056.63;4045432;86;21129;-86
2022/04/09 16:08:46;;;;;;;14.33;8.70;;;;;;;7.14;80.04;98082.25;4016210;87;21073;-85
2022/04/09 16:14:48;;;;;;;13.98;8.93;;;;;;;7.14;80.96;98078.16;4025208;88;21063;-85
2022/04/09 16:20:51;;;;;;;12.65;8.05;;;;;;;7.09;80.46;98087.26;4017157;88;21034;-86
2022/04/09 16:26:56;;;;;;;11.05;6.95;;;;;;;7.08;80.27;98085.11;4019147;86;21069;-86
2022/04/09 16:32:57;;;;;;;17.57;8.60;;;;;;;7.06;79.99;98095.61;4007163;86;21070;-86
2022/04/09 16:38:59;;;;;;;16.82;8.68;;;;;;;7.03;79.26;98096.92;4010249;86;21725;-86
2022/04/09 16:45:00;;;;;;;13.72;7.70;;;;;;;6.97;79.56;98096.45;4006454;88;21015;-87
2022/04/09 16:51:03;;;;;;;10.53;6.25;;;;;;;6.83;78.98;98092.81;4004670;88;21165;-85
2022/04/09 16:57:04;;;;;;;11.15;5.65;;;;;;;6.74;78.47;98102.61;3994862;87;21680;-85
2022/04/09 17:03:05;;;;;;;13.05;5.30;;;;;;;6.64;78.30;98106.57;4016933;87;21098;-85
2022/04/09 17:09:07;;;;;;;9.53;5.12;;;;;;;6.51;76.69;98116.11;4042663;87;21134;-86
2022/04/09 17:15:08;;;;;;;10.18;5.65;;;;;;;6.32;77.46;98113.74;4043150;87;21038;-85
2022/04/09 17:21:09;;;;;;;10.53;6.22;;;;;;;6.13;76.77;98119.30;4127603;85;21054;-86
2022/04/09 17:27:11;;;;;;;14.75;7.90;;;;;;;5.81;77.45;98116.63;4141488;84;21519;-86
2022/04/09 17:33:16;;;;;;;16.10;8.13;;;;;;;5.60;77.16;98114.15;4127846;85;21015;-86
2022/04/09 17:39:17;;;;;;;16.07;8.83;;;;;;;5.44;77.06;98115.64;4144762;85;21092;-85
2022/04/09 17:45:19;;;;;;;16.02;8.60;;;;;;;5.24;76.85;98114.69;4128600;85;21101;-85
2022/04/09 17:51:20;;;;;;;17.40;9.95;;;;;;;5.02;76.39;98126.30;4135078;85;21025;-86
2022/04/09 17:57:23;;;;;;;23.25;13.45;;;;;;;4.83;76.55;98129.81;4126450;84;21342;-86
2022/04/09 18:03:24;;;;;;;31.07;17.75;;;;;;;4.74;77.11;98138.14;3997770;84;9999577;-86
2022/04/09 18:09:27;;;;;;;42.45;20.27;;;;;;;4.53;77.47;98162.69;4132438;85;21907;-86
2022/04/09 18:15:28;;;;;;;54.67;24.82;;;;;;;4.35;78.06;98180.49;4094634;85;21019;-86
2022/04/09 18:21:31;;;;;;;44.63;20.17;;;;;;;4.29;78.28;98186.73;4107954;85;21508;-85
2022/04/09 18:27:34;;;;;;;40.03;16.97;;;;;;;4.34;78.59;98188.39;4111533;85;21523;-85
2022/04/09 18:33:35;;;;;;;35.35;16.62;;;;;;;4.32;78.59;98198.23;4140615;84;20990;-86
2022/04/09 18:39:37;;;;;;;30.20;14.58;;;;;;;4.28;78.90;98193.31;4137745;84;21046;-85
2022/04/09 18:45:41;;;;;;;29.07;16.27;;;;;;;4.27;78.44;98213.98;4049864;86;21054;-86
2022/04/09 18:51:43;;;;;;;34.90;17.12;;;;;;;4.18;78.59;98231.77;4046981;86;21023;-86
2022/04/09 18:57:46;;;;;;;41.98;18.02;;;;;;;4.22;78.99;98239.98;4053858;86;21043;-84
2022/04/09 19:03:47;;;;;;;33.78;16.80;;;;;;;4.26;79.28;98249.00;3963052;86;10000017;-85
2022/04/09 19:09:49;;;;;;;28.15;14.83;;;;;;;4.25;79.63;98260.39;4096357;86;21082;-86
2022/04/09 19:15:50;;;;;;;27.25;13.98;;;;;;;4.15;79.62;98271.74;4076148;86;21047;-86
2022/04/09 19:21:52;;;;;;;29.42;14.47;;;;;;;4.00;79.47;98271.74;4076624;85;21139;-86
2022/04/09 19:27:54;;;;;;;31.48;15.98;;;;;;;3.79;79.83;98281.46;4088811;86;21067;-85
2022/04/09 19:34:05;;;;;;;30.35;17.35;;;;;;;3.63;80.08;98293.41;4085749;86;21106;-87
2022/04/09 19:40:15;;;;;;;28.55;17.23;;;;;;;3.51;80.60;98297.53;4047647;85;21690;-86
2022/04/09 19:46:27;;;;;;;35.43;19.12;;;;;;;3.49;80.50;98306.55;4077600;86;21039;-86
2022/04/09 19:52:37;;;;;;;37.30;20.77;;;;;;;3.48;81.10;98315.23;4070236;86;21050;-87
2022/04/09 19:58:46;;;;;;;38.40;21.35;;;;;;;3.45;81.39;98319.17;4073659;86;21099;-86
2022/04/09 20:05:09;;;;;;;;;;;;;;;;;;;;;
2022/04/09 20:11:20;;;;;;;;;;;;;;;;;;;;;
2022/04/09 20:17:11;;;;;;;39.42;20.23;;;;;;;3.44;82.08;98326.53;4097225;85;21068;-87
2022/04/09 20:29:32;;;;;;;38.88;20.45;;;;;;;3.46;81.48;98326.95;4536224;77;22222;-86
2022/04/09 20:35:35;;;;;;;39.23;20.05;;;;;;;3.32;81.56;98341.42;4470297;78;20976;-85
2022/04/09 20:41:37;;;;;;;32.93;18.67;;;;;;;3.24;81.80;98338.33;4467603;78;20971;-87
2022/04/09 20:47:38;;;;;;;34.15;18.82;;;;;;;3.14;82.22;98349.61;4466010;78;20991;-85
2022/04/09 20:53:40;;;;;;;36.08;18.10;;;;;;;3.02;82.52;98346.35;4465454;78;20989;-86
2022/04/09 20:59:41;;;;;;;37.42;19.52;;;;;;;2.95;82.74;98342.09;4473035;78;21452;-85
2022/04/09 21:05:43;;;;;;;32.45;18.77;;;;;;;2.82;82.57;98343.23;4476230;78;21008;-86
2022/04/09 21:11:44;;;;;;;41.70;20.05;;;;;;;2.68;82.91;98346.84;4468884;78;21051;-85
2022/04/09 21:17:45;;;;;;;36.20;18.98;;;;;;;2.60;82.91;98349.68;4473914;78;21020;-86
2022/04/09 21:23:48;;;;;;;41.80;20.68;;;;;;;2.47;83.06;98358.89;4472952;78;21064;-85
2022/04/09 21:29:50;;;;;;;43.00;20.80;;;;;;;2.37;83.12;98364.73;4475762;78;21106;-85
2022/04/09 21:35:51;;;;;;;46.48;22.52;;;;;;;2.31;83.37;98372.83;4469067;78;20967;-85
2022/04/09 21:41:52;;;;;;;42.65;22.75;;;;;;;2.20;83.44;98373.83;4464591;78;20994;-86
2022/04/09 21:47:54;;;;;;;43.08;21.77;;;;;;;2.04;83.38;98376.94;4463526;78;21063;-86
2022/04/09 21:53:55;;;;;;;48.08;24.50;;;;;;;1.88;83.51;98384.67;4466387;78;22196;-86
2022/04/09 22:00:25;;;;;;;46.80;24.43;;;;;;;1.76;83.69;98392.70;4460268;78;21541;-85
2022/04/09 22:06:22;;;;;;;47.67;25.70;;;;;;;1.63;83.76;98389.96;4466066;78;21024;-85
2022/04/09 22:12:24;;;;;;;53.23;29.37;;;;;;;1.55;83.95;98401.61;4472455;78;21066;-85
2022/04/09 22:18:26;;;;;;;61.18;30.92;;;;;;;1.45;84.08;98400.68;4465473;78;20999;-85
2022/04/09 22:24:27;;;;;;;69.67;29.57;;;;;;;1.23;84.31;98393.46;4461042;78;21017;-85
2022/04/09 22:30:29;;;;;;;54.73;28.92;;;;;;;1.28;84.75;98412.14;4435359;79;21722;-85
2022/04/09 22:36:30;;;;;;;69.30;37.05;;;;;;;1.19;84.68;98420.28;4419262;79;21584;-86
2022/04/09 22:42:32;;;;;;;64.37;33.42;;;;;;;1.11;84.84;98423.81;4416284;79;20986;-85
2022/04/09 22:48:33;;;;;;;56.10;30.60;;;;;;;1.06;85.15;98436.71;4415889;79;21028;-85
2022/04/09 22:54:35;;;;;;;61.92;32.17;;;;;;;1.08;85.24;98437.19;4430704;79;21576;-86
2022/04/09 23:00:36;;;;;;;57.58;30.23;;;;;;;1.07;85.71;98444.47;4419652;79;20964;-85
2022/04/09 23:06:38;;;;;;;46.33;25.25;;;;;;;1.04;85.69;98454.55;4430581;79;21025;-85
2022/04/09 23:12:47;;;;;;;53.78;28.45;;;;;;;0.97;85.96;98444.06;4425166;79;21523;-86
2022/04/09 23:18:48;;;;;;;49.05;25.10;;;;;;;0.97;85.96;98444.06;4417059;79;21547;-85
2022/04/09 23:24:49;;;;;;;43.85;24.07;;;;;;;1.02;86.33;98464.06;4424788;79;21158;-86
2022/04/09 23:30:51;;;;;;;43.98;24.15;;;;;;;0.95;85.86;98466.49;4447971;79;21021;-86
2022/04/09 23:36:52;;;;;;;47.50;23.45;;;;;;;0.93;86.53;98474.91;4439854;79;20975;-85
2022/04/09 23:42:53;;;;;;;43.65;21.82;;;;;;;0.95;86.77;98475.92;4439525;79;21005;-86
2022/04/09 23:48:54;;;;;;;42.70;20.57;;;;;;;0.96;86.83;98493.13;4460581;79;20969;-86
2022/04/09 23:54:57;;;;;;;45.70;21.35;;;;;;;0.87;86.13;98489.67;4449131;79;20940;-85
